Time;durP1;ratioP1;P1;durP2;ratioP2;P2;SDS_P1;SDS_P2;PMS_P1;PMS_P2;Temp;Humidity;BMP_temperature;BMP_pressure;BME280_temperature;BME280_humidity;BME280_pressure;Samples;Min_cycle;Max_cycle;Signal;HPM_P1;HPM_P2
2021/01/21 00:00:50;;;;;;;4.17;2.80;;;10.70;99.90;;;;;;4984314;28;20218;-79
2021/01/21 00:03:16;;;;;;;2.80;2.27;;;10.70;99.90;;;;;;4985050;28;20210;-81
2021/01/21 00:05:42;;;;;;;3.00;2.23;;;10.70;99.90;;;;;;4983908;28;20212;-78
2021/01/21 00:08:08;;;;;;;4.17;2.30;;;10.70;99.90;;;;;;4985002;28;20820;-79
2021/01/21 00:10:35;;;;;;;2.90;2.20;;;10.70;99.90;;;;;;4985753;28;20248;-80
2021/01/21 00:13:01;;;;;;;3.50;2.23;;;10.70;99.90;;;;;;4985583;28;20212;-78
2021/01/21 00:15:27;;;;;;;3.40;2.20;;;10.70;99.90;;;;;;4986059;28;20596;-81
2021/01/21 00:17:54;;;;;;;5.00;2.30;;;10.70;99.90;;;;;;4985648;28;20208;-77
2021/01/21 00:20:20;;;;;;;3.70;2.70;;;10.70;99.90;;;;;;4984937;28;20200;-77
2021/01/21 00:22:47;;;;;;;2.73;2.00;;;10.60;99.90;;;;;;4985657;28;20231;-77
2021/01/21 00:25:13;;;;;;;3.93;2.37;;;10.60;99.90;;;;;;4985786;28;20208;-78
2021/01/21 00:27:39;;;;;;;5.20;2.10;;;10.60;99.90;;;;;;4985162;28;20200;-79
2021/01/21 00:30:08;;;;;;;4.00;1.90;;;10.50;99.90;;;;;;4986507;28;20220;-84
2021/01/21 00:32:34;;;;;;;4.67;1.87;;;10.60;99.90;;;;;;4985224;28;20214;-79
2021/01/21 00:35:02;;;;;;;2.60;2.10;;;10.60;99.90;;;;;;4985920;28;20227;-79
2021/01/21 00:37:28;;;;;;;2.77;1.80;;;10.60;99.90;;;;;;4985402;28;20203;-76
2021/01/21 00:39:54;;;;;;;2.63;2.07;;;10.60;99.90;;;;;;4985692;28;20863;-78
2021/01/21 00:42:20;;;;;;;2.40;1.80;;;10.60;99.90;;;;;;4985275;28;20200;-78
2021/01/21 00:44:47;;;;;;;2.53;1.57;;;10.60;99.90;;;;;;4984901;28;20203;-77
2021/01/21 00:47:13;;;;;;;2.77;1.80;;;10.60;99.90;;;;;;4984697;28;20233;-77
2021/01/21 00:49:39;;;;;;;3.37;1.93;;;10.60;99.90;;;;;;4984087;28;20204;-78
2021/01/21 00:52:06;;;;;;;3.27;2.30;;;10.60;99.90;;;;;;4984995;28;20586;-78
2021/01/21 00:54:34;;;;;;;4.27;1.67;;;10.70;99.90;;;;;;4983680;28;20274;-79
2021/01/21 00:57:00;;;;;;;3.00;1.90;;;10.70;99.90;;;;;;4984426;28;20643;-79
2021/01/21 00:59:26;;;;;;;5.20;2.10;;;10.60;99.90;;;;;;4984402;28;20204;-80
2021/01/21 01:01:53;;;;;;;3.93;2.47;;;10.60;99.90;;;;;;4984124;28;20208;-79
2021/01/21 01:04:19;;;;;;;2.63;1.80;;;10.50;99.90;;;;;;4985217;28;20682;-78
2021/01/21 01:06:45;;;;;;;5.53;2.40;;;10.50;99.90;;;;;;4985335;28;20203;-78
2021/01/21 01:09:13;;;;;;;3.73;2.03;;;10.50;99.90;;;;;;4985257;28;20244;-78
2021/01/21 01:11:39;;;;;;;4.30;1.90;;;10.40;99.90;;;;;;4986977;28;20196;-83
2021/01/21 01:14:06;;;;;;;2.97;2.27;;;10.30;99.90;;;;;;4987329;28;20216;-82
2021/01/21 01:16:32;;;;;;;3.77;1.93;;;10.30;99.90;;;;;;4987869;28;20208;-80
2021/01/21 01:18:58;;;;;;;5.37;2.10;;;10.20;99.90;;;;;;4988233;28;20211;-79
2021/01/21 01:21:25;;;;;;;3.77;2.07;;;10.10;99.90;;;;;;4988720;28;20203;-83
2021/01/21 01:23:51;;;;;;;4.90;2.43;;;10.10;99.90;;;;;;4987643;28;20228;-80
2021/01/21 01:26:21;;;;;;;2.87;2.13;;;10.10;99.90;;;;;;4987672;28;20615;-83
2021/01/21 01:28:47;;;;;;;4.27;2.10;;;10.10;99.90;;;;;;4986979;28;20502;-82
2021/01/21 01:31:14;;;;;;;3.67;1.70;;;10.10;99.90;;;;;;4990899;28;20211;-83
2021/01/21 01:33:40;;;;;;;3.10;1.90;;;10.10;99.90;;;;;;4991620;28;20232;-86
2021/01/21 01:36:07;;;;;;;4.37;1.80;;;10.00;99.90;;;;;;4987239;28;20208;-80
2021/01/21 01:38:33;;;;;;;3.70;1.80;;;10.00;99.90;;;;;;4987798;28;20258;-79
2021/01/21 01:41:00;;;;;;;2.97;2.43;;;10.00;99.90;;;;;;4990855;28;20651;-80
2021/01/21 01:43:27;;;;;;;3.77;1.83;;;10.00;99.90;;;;;;4990670;28;20852;-81
2021/01/21 01:45:53;;;;;;;4.83;2.10;;;10.00;99.90;;;;;;4990842;28;20749;-84
2021/01/21 01:48:20;;;;;;;4.37;2.13;;;9.90;99.90;;;;;;4990402;28;20191;-80
2021/01/21 01:50:47;;;;;;;4.07;2.20;;;9.90;99.90;;;;;;4990170;28;20726;-82
2021/01/21 01:53:14;;;;;;;3.07;1.87;;;10.00;99.90;;;;;;4990382;28;20196;-82
2021/01/21 01:55:41;;;;;;;3.03;1.90;;;9.90;99.90;;;;;;4990820;28;20212;-80
2021/01/21 01:58:09;;;;;;;4.13;2.17;;;9.90;99.90;;;;;;4990849;28;20207;-85
2021/01/21 02:00:36;;;;;;;5.43;3.00;;;9.90;99.90;;;;;;4991395;28;20286;-81
2021/01/21 02:03:03;;;;;;;4.53;1.83;;;10.00;99.90;;;;;;4991102;28;20741;-84
2021/01/21 02:05:29;;;;;;;3.07;1.70;;;10.10;99.90;;;;;;4990805;28;20254;-83
2021/01/21 02:07:56;;;;;;;5.63;1.70;;;10.10;99.90;;;;;;4991192;28;20595;-81
2021/01/21 02:10:22;;;;;;;3.70;2.20;;;10.10;99.90;;;;;;4990720;28;20270;-81
2021/01/21 02:13:22;;;;;;;3.63;2.13;;;10.20;99.90;;;;;;4990449;28;20210;-81
2021/01/21 02:15:58;;;;;;;2.80;1.60;;;10.30;99.90;;;;;;4987434;28;20791;-80
2021/01/21 02:18:27;;;;;;;4.37;2.00;;;10.30;99.90;;;;;;4989219;28;20314;-79
2021/01/21 02:21:41;;;;;;;5.07;1.70;;;10.40;99.90;;;;;;4990821;28;20207;-78
2021/01/21 02:24:39;;;;;;;3.63;1.73;;;10.40;99.90;;;;;;4991322;28;20196;-84
2021/01/21 02:27:06;;;;;;;3.07;1.73;;;10.50;99.90;;;;;;4992295;28;20539;-86
2021/01/21 02:29:35;;;;;;;2.43;1.80;;;10.60;99.90;;;;;;4992732;28;20203;-82
2021/01/21 02:32:18;;;;;;;2.37;1.87;;;10.60;99.90;;;;;;4991982;28;20208;-81
2021/01/21 02:34:51;;;;;;;3.93;1.83;;;10.60;99.90;;;;;;4990800;28;20274;-82
2021/01/21 02:37:23;;;;;;;2.90;1.93;;;10.60;99.90;;;;;;4990219;28;20521;-80
2021/01/21 02:39:52;;;;;;;3.87;1.80;;;10.60;99.90;;;;;;4989792;28;20195;-80
2021/01/21 02:42:18;;;;;;;5.13;1.93;;;10.50;99.90;;;;;;4988961;28;20199;-82
2021/01/21 02:44:45;;;;;;;4.40;1.93;;;10.40;99.90;;;;;;4989843;28;20203;-80
2021/01/21 02:47:12;;;;;;;4.10;2.00;;;10.40;99.90;;;;;;4990296;28;20214;-79
2021/01/21 02:49:39;;;;;;;3.10;1.77;;;10.40;99.90;;;;;;4990987;28;20203;-85
2021/01/21 02:52:16;;;;;;;3.47;2.10;;;10.40;99.90;;;;;;4991785;28;20208;-84
2021/01/21 02:54:54;;;;;;;2.73;2.17;;;10.30;99.90;;;;;;4989220;28;20227;-79
2021/01/21 02:57:23;;;;;;;6.60;2.40;;;10.30;99.90;;;;;;4989857;28;20204;-84
2021/01/21 02:59:51;;;;;;;5.87;2.03;;;10.30;99.90;;;;;;4990905;28;20211;-86
2021/01/21 03:02:20;;;;;;;3.40;2.00;;;10.30;99.90;;;;;;4990715;28;20200;-78
2021/01/21 03:04:48;;;;;;;3.20;1.90;;;10.30;99.90;;;;;;4991219;28;20266;-82
2021/01/21 03:07:16;;;;;;;3.23;1.67;;;10.20;99.90;;;;;;4990271;28;20199;-86
2021/01/21 03:09:44;;;;;;;4.13;2.00;;;10.20;99.90;;;;;;4989597;28;20354;-86
2021/01/21 03:12:18;;;;;;;2.90;2.10;;;10.20;99.90;;;;;;4992407;28;20215;-82
2021/01/21 03:14:45;;;;;;;5.23;2.30;;;10.10;99.90;;;;;;4973616;28;20291;-84
2021/01/21 03:17:12;;;;;;;3.37;2.17;;;10.10;99.90;;;;;;4971474;28;20227;-84
2021/01/21 03:19:38;;;;;;;3.13;2.20;;;10.10;99.90;;;;;;4972885;28;20652;-88
2021/01/21 03:22:04;;;;;;;6.93;2.30;;;10.10;99.90;;;;;;4972018;28;20457;-85
2021/01/21 03:24:31;;;;;;;4.87;2.17;;;10.10;99.90;;;;;;4970953;28;20200;-79
2021/01/21 03:26:58;;;;;;;4.37;2.50;;;10.10;99.90;;;;;;4972811;28;20204;-87
2021/01/21 03:29:26;;;;;;;8.87;2.10;;;10.10;99.90;;;;;;4972344;28;20549;-88
2021/01/21 03:31:52;;;;;;;10.57;2.70;;;10.00;99.90;;;;;;4971278;28;20248;-82
2021/01/21 03:34:19;;;;;;;18.90;4.57;;;9.80;99.90;;;;;;4969668;28;20530;-82
2021/01/21 03:36:45;;;;;;;10.23;2.97;;;9.60;99.90;;;;;;4970030;28;20197;-82
2021/01/21 03:39:11;;;;;;;15.30;3.10;;;9.40;99.90;;;;;;4970728;28;20209;-86
2021/01/21 03:41:39;;;;;;;12.47;3.13;;;9.30;99.90;;;;;;4970255;28;20220;-84
2021/01/21 03:44:05;;;;;;;19.60;3.07;;;9.10;99.90;;;;;;4971006;28;20209;-83
2021/01/21 03:46:32;;;;;;;12.53;3.37;;;9.00;99.90;;;;;;4969671;28;20612;-82
2021/01/21 03:48:59;;;;;;;15.20;3.10;;;8.90;99.90;;;;;;4968724;28;20278;-83
2021/01/21 03:51:25;;;;;;;20.90;3.27;;;8.80;99.90;;;;;;4969280;28;20208;-82
2021/01/21 03:53:51;;;;;;;21.17;3.77;;;8.70;99.90;;;;;;4970333;28;20220;-82
2021/01/21 03:56:18;;;;;;;23.50;4.50;;;8.70;99.90;;;;;;4969031;28;20193;-82
2021/01/21 03:58:45;;;;;;;24.53;4.67;;;8.60;99.90;;;;;;4969499;28;20236;-83
2021/01/21 04:01:12;;;;;;;22.43;4.97;;;8.70;99.90;;;;;;4970948;28;20267;-81
2021/01/21 04:03:38;;;;;;;25.97;5.20;;;8.60;99.90;;;;;;4969957;28;20617;-83
2021/01/21 04:06:05;;;;;;;34.90;6.80;;;8.50;99.90;;;;;;4969305;28;20208;-81
2021/01/21 04:08:31;;;;;;;25.47;5.70;;;8.50;99.90;;;;;;4971338;28;20252;-83
2021/01/21 04:10:57;;;;;;;32.50;5.40;;;8.50;99.90;;;;;;4970321;28;20248;-83
2021/01/21 04:13:24;;;;;;;25.00;6.37;;;8.50;99.90;;;;;;4969345;28;20649;-80
2021/01/21 04:15:51;;;;;;;35.00;7.17;;;8.50;99.90;;;;;;4969140;28;20213;-83
2021/01/21 04:18:17;;;;;;;26.20;5.63;;;8.40;99.90;;;;;;4969346;28;20212;-84
2021/01/21 04:20:43;;;;;;;33.90;8.23;;;8.40;99.90;;;;;;4969130;28;20594;-80
2021/01/21 04:23:10;;;;;;;34.20;7.10;;;8.40;99.90;;;;;;4968029;28;20225;-82
2021/01/21 04:25:36;;;;;;;29.00;5.67;;;8.40;99.90;;;;;;4968249;28;20197;-82
2021/01/21 04:28:03;;;;;;;17.70;3.63;;;8.40;99.90;;;;;;4969474;28;20665;-82
2021/01/21 04:30:30;;;;;;;20.63;4.63;;;8.40;99.90;;;;;;4967670;28;20605;-81
2021/01/21 04:32:57;;;;;;;25.47;4.67;;;8.40;99.90;;;;;;4967896;28;20200;-84
2021/01/21 04:35:24;;;;;;;18.10;4.17;;;8.30;99.90;;;;;;4967685;28;20232;-80
2021/01/21 04:37:50;;;;;;;22.80;4.83;;;8.30;99.90;;;;;;4966739;28;20598;-81
2021/01/21 04:40:16;;;;;;;24.50;5.30;;;8.30;99.90;;;;;;4965942;28;20213;-83
2021/01/21 04:42:43;;;;;;;27.80;5.60;;;8.30;99.90;;;;;;4965998;28;20209;-82
2021/01/21 04:45:10;;;;;;;15.43;4.00;;;8.30;99.90;;;;;;4965776;28;20209;-82
2021/01/21 04:47:37;;;;;;;23.20;4.43;;;8.20;99.90;;;;;;4965621;28;20209;-78
2021/01/21 04:50:06;;;;;;;23.87;5.40;;;8.10;99.90;;;;;;4965725;28;20271;-79
2021/01/21 04:52:36;;;;;;;23.37;5.27;;;8.10;99.90;;;;;;4965321;28;20212;-82
2021/01/21 04:55:07;;;;;;;8.53;2.53;;;8.10;99.90;;;;;;4965514;28;20228;-80
2021/01/21 04:57:44;;;;;;;14.53;2.43;;;7.90;99.90;;;;;;4964640;28;20197;-79
2021/01/21 05:00:11;;;;;;;18.93;3.57;;;7.70;99.90;;;;;;4964178;28;20275;-78
2021/01/21 05:02:40;;;;;;;20.60;3.70;;;7.50;99.90;;;;;;4966377;28;20251;-80
2021/01/21 05:05:10;;;;;;;22.77;4.77;;;7.30;99.90;;;;;;4965071;28;20224;-81
2021/01/21 05:07:38;;;;;;;19.13;5.50;;;7.20;99.90;;;;;;4965783;28;20212;-80
2021/01/21 05:10:06;;;;;;;21.43;5.67;;;7.10;99.90;;;;;;4966400;28;20267;-79
2021/01/21 05:12:33;;;;;;;24.90;6.37;;;7.10;99.90;;;;;;4966449;28;20246;-78
2021/01/21 05:14:59;;;;;;;30.00;6.27;;;7.00;99.90;;;;;;4983516;28;20246;-80
2021/01/21 05:17:26;;;;;;;14.90;4.63;;;7.00;99.90;;;;;;4986358;28;20199;-81
2021/01/21 05:19:54;;;;;;;21.50;5.33;;;7.00;99.90;;;;;;4985137;28;20196;-80
2021/01/21 05:22:21;;;;;;;24.67;5.20;;;7.00;99.90;;;;;;4984412;28;20228;-79
2021/01/21 05:24:48;;;;;;;16.97;4.70;;;7.00;99.90;;;;;;4984142;28;20208;-81
2021/01/21 05:27:15;;;;;;;15.97;4.60;;;7.00;99.90;;;;;;4983727;28;20199;-80
2021/01/21 05:29:44;;;;;;;16.07;4.27;;;7.00;99.90;;;;;;4983228;28;20204;-81
2021/01/21 05:32:12;;;;;;;15.83;4.00;;;7.00;99.90;;;;;;4984354;28;20299;-81
2021/01/21 05:34:38;;;;;;;21.90;3.90;;;7.10;99.90;;;;;;4984080;28;20223;-82
2021/01/21 05:37:07;;;;;;;17.13;4.23;;;7.00;99.90;;;;;;4984284;28;20204;-79
2021/01/21 05:39:38;;;;;;;20.47;5.80;;;7.10;99.90;;;;;;4985273;28;20203;-81
2021/01/21 05:42:06;;;;;;;18.90;4.27;;;7.10;99.90;;;;;;4985069;28;20207;-79
2021/01/21 05:44:32;;;;;;;13.27;4.03;;;7.10;99.90;;;;;;4984300;28;20215;-79
2021/01/21 05:47:01;;;;;;;18.13;4.40;;;7.10;99.90;;;;;;4984046;28;20671;-79
2021/01/21 05:49:27;;;;;;;20.53;4.77;;;7.10;99.90;;;;;;4984302;28;20648;-78
2021/01/21 05:51:56;;;;;;;23.00;4.63;;;7.10;99.90;;;;;;4984783;28;20203;-79
2021/01/21 05:54:24;;;;;;;21.37;6.30;;;7.10;99.90;;;;;;4983366;28;20231;-79
2021/01/21 05:56:52;;;;;;;17.67;5.13;;;7.20;99.90;;;;;;4981834;28;20278;-80
2021/01/21 05:59:19;;;;;;;18.00;5.67;;;7.20;99.90;;;;;;4983128;28;20200;-79
2021/01/21 06:01:47;;;;;;;22.90;4.93;;;7.20;99.90;;;;;;4982902;28;20227;-80
2021/01/21 06:04:14;;;;;;;17.00;4.20;;;7.20;99.90;;;;;;4967601;28;20203;-78
2021/01/21 06:06:41;;;;;;;17.80;4.10;;;7.20;99.90;;;;;;4983691;28;20207;-78
2021/01/21 06:09:12;;;;;;;13.90;3.60;;;7.20;99.90;;;;;;4983840;28;20236;-79
2021/01/21 06:11:40;;;;;;;17.47;4.03;;;7.10;99.90;;;;;;4984714;28;20246;-79
2021/01/21 06:14:08;;;;;;;19.37;4.20;;;7.10;99.90;;;;;;4984800;28;20655;-79
2021/01/21 06:16:36;;;;;;;14.13;3.47;;;7.10;99.90;;;;;;4985593;28;20211;-79
2021/01/21 06:19:02;;;;;;;20.03;4.93;;;7.20;99.90;;;;;;4988325;28;20557;-80
2021/01/21 06:21:33;;;;;;;15.47;4.27;;;7.10;99.90;;;;;;4988033;28;20200;-78
2021/01/21 06:24:03;;;;;;;15.37;3.87;;;7.10;99.90;;;;;;4987957;28;20223;-78
2021/01/21 06:26:41;;;;;;;14.30;3.60;;;7.10;99.90;;;;;;4987715;28;20196;-78
2021/01/21 06:29:11;;;;;;;14.83;3.40;;;7.10;99.90;;;;;;4986230;28;20211;-80
2021/01/21 06:31:39;;;;;;;15.50;3.20;;;7.10;99.90;;;;;;4985902;28;20827;-77
2021/01/21 06:34:11;;;;;;;13.77;3.63;;;7.10;99.90;;;;;;4986940;28;20563;-78
2021/01/21 06:36:43;;;;;;;18.07;3.40;;;7.10;99.90;;;;;;4987859;28;20222;-79
2021/01/21 06:39:13;;;;;;;20.47;4.53;;;7.20;99.90;;;;;;4986882;28;20211;-81
2021/01/21 06:41:43;;;;;;;13.10;3.63;;;7.20;99.90;;;;;;4987264;28;20203;-80
2021/01/21 06:44:14;;;;;;;16.77;4.27;;;7.20;99.90;;;;;;4986826;28;20204;-78
2021/01/21 06:46:42;;;;;;;17.40;4.37;;;7.20;99.90;;;;;;4986387;28;20210;-80
2021/01/21 06:49:08;;;;;;;11.27;3.17;;;7.20;99.90;;;;;;4986954;28;20592;-79
2021/01/21 06:51:35;;;;;;;16.97;4.37;;;7.10;99.90;;;;;;4985844;28;20214;-80
2021/01/21 06:54:02;;;;;;;24.17;4.63;;;7.10;99.90;;;;;;4986699;28;20231;-80
2021/01/21 06:56:31;;;;;;;17.57;3.13;;;7.10;99.90;;;;;;4987234;28;20647;-81
2021/01/21 06:58:57;;;;;;;10.70;2.90;;;7.10;99.90;;;;;;4985793;28;20287;-79
2021/01/21 07:01:43;;;;;;;16.53;4.23;;;7.10;99.90;;;;;;4986491;28;20211;-78
2021/01/21 07:04:25;;;;;;;20.23;4.40;;;7.00;99.90;;;;;;4987209;28;20323;-79
2021/01/21 07:07:03;;;;;;;15.70;4.67;;;7.00;99.90;;;;;;4986746;28;20204;-80
2021/01/21 07:09:33;;;;;;;18.70;3.43;;;7.00;99.90;;;;;;4987007;28;20246;-81
2021/01/21 07:12:02;;;;;;;18.27;3.37;;;7.00;99.90;;;;;;4987386;28;20207;-80
2021/01/21 07:14:30;;;;;;;16.00;4.47;;;7.10;99.90;;;;;;4972355;28;20327;-79
2021/01/21 07:17:00;;;;;;;16.27;3.50;;;7.10;99.90;;;;;;4967728;28;20208;-80
2021/01/21 07:19:45;;;;;;;16.60;3.57;;;7.00;99.90;;;;;;4967873;28;20255;-79
2021/01/21 07:22:13;;;;;;;22.57;4.60;;;7.10;99.90;;;;;;4967401;28;20232;-79
2021/01/21 07:24:49;;;;;;;19.13;4.73;;;7.00;99.90;;;;;;4967678;28;20215;-79
2021/01/21 07:27:18;;;;;;;18.17;4.00;;;7.10;99.90;;;;;;4966671;28;20212;-79
2021/01/21 07:29:45;;;;;;;23.47;5.97;;;7.10;99.90;;;;;;4966766;28;20292;-78
2021/01/21 07:32:13;;;;;;;15.57;4.73;;;7.10;99.90;;;;;;4950007;28;20507;-80
2021/01/21 07:34:47;;;;;;;17.50;4.57;;;7.10;99.90;;;;;;4966429;28;20264;-78
2021/01/21 07:37:22;;;;;;;13.47;3.10;;;7.10;99.90;;;;;;4967632;28;20263;-81
2021/01/21 07:40:09;;;;;;;11.10;3.50;;;7.00;99.90;;;;;;4967824;28;20212;-78
2021/01/21 07:42:49;;;;;;;15.63;4.00;;;7.10;99.90;;;;;;4966617;28;20210;-78
2021/01/21 07:45:26;;;;;;;13.33;3.60;;;7.00;99.90;;;;;;4967599;28;20633;-80
2021/01/21 07:47:56;;;;;;;21.17;4.13;;;7.10;99.90;;;;;;4967082;28;21065;-79
2021/01/21 07:50:33;;;;;;;14.80;3.77;;;7.00;99.90;;;;;;4967157;28;20204;-78
2021/01/21 07:53:02;;;;;;;22.40;5.13;;;7.00;99.90;;;;;;4967573;28;20597;-79
2021/01/21 07:55:32;;;;;;;12.40;2.87;;;6.90;99.90;;;;;;4966110;28;20778;-79
2021/01/21 07:58:22;;;;;;;15.23;3.60;;;6.90;99.90;;;;;;4966924;28;20219;-80
2021/01/21 08:00:50;;;;;;;16.77;4.43;;;6.90;99.90;;;;;;4967210;28;20201;-78
2021/01/21 08:03:28;;;;;;;15.57;4.27;;;6.90;99.90;;;;;;4966987;28;20267;-80
2021/01/21 08:06:05;;;;;;;13.70;5.23;;;7.00;99.90;;;;;;4967567;28;20227;-78
2021/01/21 08:08:31;;;;;;;11.27;3.73;;;7.00;99.90;;;;;;4967236;28;20200;-79
2021/01/21 08:11:02;;;;;;;13.87;4.50;;;7.00;99.90;;;;;;4966645;28;20247;-80
2021/01/21 08:13:30;;;;;;;17.63;4.20;;;7.10;99.90;;;;;;4972767;28;20238;-83
2021/01/21 08:15:56;;;;;;;19.53;4.20;;;7.10;99.90;;;;;;4987014;28;20259;-80
2021/01/21 08:18:27;;;;;;;13.97;3.20;;;7.10;99.90;;;;;;4985803;28;20219;-81
2021/01/21 08:20:53;;;;;;;17.00;4.17;;;7.20;99.90;;;;;;4986583;28;20615;-80
2021/01/21 08:23:20;;;;;;;12.00;3.23;;;7.20;99.90;;;;;;4986887;28;20561;-79
2021/01/21 08:25:48;;;;;;;13.70;3.20;;;7.20;99.90;;;;;;4986462;28;20200;-80
2021/01/21 08:28:16;;;;;;;16.73;3.53;;;7.30;99.90;;;;;;4985823;28;20207;-80
2021/01/21 08:30:42;;;;;;;11.87;3.00;;;7.20;99.90;;;;;;4985443;28;20200;-77
2021/01/21 08:33:14;;;;;;;22.03;3.80;;;7.20;99.90;;;;;;4986876;28;20212;-81
2021/01/21 08:35:48;;;;;;;20.67;4.63;;;7.20;99.90;;;;;;4986178;28;20644;-80
2021/01/21 08:38:18;;;;;;;11.57;3.83;;;7.30;99.90;;;;;;4985982;28;20207;-77
2021/01/21 08:40:45;;;;;;;11.67;3.47;;;7.20;99.90;;;;;;4985230;28;20825;-79
2021/01/21 08:43:12;;;;;;;14.63;3.50;;;7.20;99.90;;;;;;4986420;28;20204;-80
2021/01/21 08:45:38;;;;;;;18.60;3.77;;;7.20;99.90;;;;;;4985800;28;20543;-81
2021/01/21 08:48:06;;;;;;;15.07;3.23;;;7.20;99.90;;;;;;4986645;28;20231;-80
2021/01/21 08:50:38;;;;;;;16.20;4.23;;;7.20;99.90;;;;;;4985492;28;20267;-80
2021/01/21 08:53:08;;;;;;;14.27;3.63;;;7.10;99.90;;;;;;4986692;28;20214;-81
2021/01/21 08:55:43;;;;;;;14.80;3.63;;;7.20;99.90;;;;;;4984211;28;20998;-81
2021/01/21 08:58:10;;;;;;;23.63;3.43;;;7.20;99.90;;;;;;4982984;28;20596;-79
2021/01/21 09:00:38;;;;;;;15.87;3.80;;;7.20;99.90;;;;;;4985758;28;20217;-80
2021/01/21 09:03:04;;;;;;;15.70;3.27;;;7.20;99.90;;;;;;4986566;28;21008;-81
2021/01/21 09:05:32;;;;;;;15.20;3.93;;;7.20;99.90;;;;;;4985606;28;20204;-81
2021/01/21 09:08:09;;;;;;;20.83;3.77;;;7.20;99.90;;;;;;4986235;28;20247;-82
2021/01/21 09:10:40;;;;;;;14.40;4.03;;;7.30;99.90;;;;;;4986661;28;20235;-81
2021/01/21 09:13:06;;;;;;;16.00;3.50;;;7.30;99.90;;;;;;4985933;28;20212;-82
2021/01/21 09:16:00;;;;;;;27.50;4.57;;;7.30;99.90;;;;;;4986770;28;20255;-80
2021/01/21 09:18:45;;;;;;;12.70;3.20;;;7.40;99.90;;;;;;4986710;28;20207;-81
2021/01/21 09:21:13;;;;;;;15.23;3.40;;;7.40;99.90;;;;;;4985720;28;20232;-80
2021/01/21 09:23:41;;;;;;;16.63;3.10;;;7.50;99.90;;;;;;4985333;28;20239;-80
2021/01/21 09:26:12;;;;;;;21.90;3.83;;;7.50;99.90;;;;;;4985836;28;20214;-80
2021/01/21 09:28:52;;;;;;;19.40;3.70;;;7.50;99.90;;;;;;4986223;28;20644;-79
2021/01/21 09:31:21;;;;;;;15.03;4.17;;;7.50;99.90;;;;;;4986923;28;20238;-78
2021/01/21 09:33:49;;;;;;;16.80;3.90;;;7.60;99.90;;;;;;4985005;28;20230;-80
2021/01/21 09:36:15;;;;;;;17.70;3.70;;;7.60;99.90;;;;;;4985564;28;20238;-80
2021/01/21 09:38:42;;;;;;;19.97;4.40;;;7.60;99.90;;;;;;4984911;28;20207;-80
2021/01/21 09:41:08;;;;;;;24.53;4.67;;;7.60;99.90;;;;;;4984912;28;20196;-80
2021/01/21 09:43:35;;;;;;;21.03;4.90;;;7.70;99.90;;;;;;4986244;28;20467;-81
2021/01/21 09:46:01;;;;;;;30.70;5.23;;;7.70;99.90;;;;;;4986384;28;20200;-79
2021/01/21 09:48:28;;;;;;;24.80;4.73;;;7.70;99.90;;;;;;4985843;28;20210;-79
2021/01/21 09:50:56;;;;;;;14.37;3.40;;;7.70;99.90;;;;;;4984065;28;20212;-81
2021/01/21 09:53:22;;;;;;;15.00;3.60;;;7.80;99.90;;;;;;4988601;28;20200;-79
2021/01/21 09:55:55;;;;;;;15.43;3.97;;;7.80;99.90;;;;;;4986400;28;20286;-80
2021/01/21 09:58:21;;;;;;;12.47;2.93;;;7.80;99.90;;;;;;4987500;28;20208;-80
2021/01/21 10:00:47;;;;;;;12.90;3.47;;;7.80;99.90;;;;;;4986825;28;20196;-82
2021/01/21 10:03:14;;;;;;;11.73;3.60;;;7.80;99.90;;;;;;4987417;28;20200;-80
2021/01/21 10:05:40;;;;;;;13.40;2.83;;;7.70;99.90;;;;;;4989273;28;20209;-81
2021/01/21 10:08:06;;;;;;;13.10;2.37;;;7.80;99.90;;;;;;4990276;28;20204;-79
2021/01/21 10:10:32;;;;;;;15.07;3.40;;;7.80;99.90;;;;;;4988576;28;20239;-79
2021/01/21 10:13:00;;;;;;;13.00;3.87;;;7.80;99.90;;;;;;4990050;28;20208;-77
2021/01/21 10:15:26;;;;;;;15.90;2.53;;;7.90;99.90;;;;;;4989410;28;20456;-78
2021/01/21 10:17:52;;;;;;;17.70;3.50;;;7.90;99.90;;;;;;4989197;28;20211;-81
2021/01/21 10:20:19;;;;;;;12.83;2.90;;;8.00;99.90;;;;;;4988662;28;20204;-80
2021/01/21 10:22:45;;;;;;;15.40;4.30;;;8.00;99.90;;;;;;4988181;28;20227;-80
2021/01/21 10:25:12;;;;;;;12.20;2.47;;;8.10;99.90;;;;;;4988271;28;20255;-83
2021/01/21 10:27:39;;;;;;;16.03;3.50;;;8.10;99.90;;;;;;4988207;28;20925;-82
2021/01/21 10:30:07;;;;;;;11.03;3.13;;;8.20;99.90;;;;;;4988248;28;20204;-80
2021/01/21 10:32:34;;;;;;;12.77;2.80;;;8.20;99.90;;;;;;4987766;28;20207;-80
2021/01/21 10:35:00;;;;;;;15.43;3.07;;;8.30;99.90;;;;;;4987993;28;20235;-79
2021/01/21 10:37:27;;;;;;;9.00;2.57;;;8.30;99.90;;;;;;4987709;28;20196;-79
2021/01/21 10:39:53;;;;;;;7.43;1.77;;;8.30;99.90;;;;;;4988139;28;20212;-80
2021/01/21 10:42:19;;;;;;;12.70;2.87;;;8.40;99.90;;;;;;4989868;28;20280;-76
2021/01/21 10:44:45;;;;;;;7.77;2.07;;;8.30;99.90;;;;;;4988168;28;20200;-80
2021/01/21 10:47:12;;;;;;;10.17;2.53;;;8.40;99.90;;;;;;4988824;28;20204;-80
2021/01/21 10:49:39;;;;;;;12.33;2.33;;;8.40;99.90;;;;;;4988453;28;20208;-81
2021/01/21 10:52:05;;;;;;;8.93;2.33;;;8.40;99.90;;;;;;4988865;28;20226;-80
2021/01/21 10:54:31;;;;;;;17.10;3.70;;;8.40;99.90;;;;;;4988556;28;20224;-81
2021/01/21 10:56:57;;;;;;;13.43;2.90;;;8.30;99.90;;;;;;4988793;28;20231;-81
2021/01/21 10:59:24;;;;;;;14.97;4.30;;;8.30;99.90;;;;;;4987462;28;20208;-83
2021/01/21 11:01:50;;;;;;;7.40;2.43;;;8.30;99.90;;;;;;4988225;28;20192;-81
2021/01/21 11:04:18;;;;;;;13.67;4.03;;;8.30;99.90;;;;;;4985996;28;20211;-78
2021/01/21 11:06:45;;;;;;;11.70;2.63;;;8.40;99.90;;;;;;4987195;28;20211;-79
2021/01/21 11:09:11;;;;;;;13.70;2.60;;;8.40;99.90;;;;;;4986275;28;20248;-80
2021/01/21 11:11:37;;;;;;;13.90;4.03;;;8.40;99.90;;;;;;4985705;28;20216;-82
2021/01/21 11:14:04;;;;;;;17.33;3.40;;;8.40;99.90;;;;;;4986370;28;20224;-81
2021/01/21 11:16:30;;;;;;;12.33;2.63;;;8.50;99.90;;;;;;4988297;28;20211;-85
2021/01/21 11:18:56;;;;;;;13.27;3.07;;;8.50;99.90;;;;;;4988726;28;20208;-80
2021/01/21 11:21:24;;;;;;;12.97;3.23;;;8.50;99.90;;;;;;4988755;28;20286;-80
2021/01/21 11:23:50;;;;;;;15.17;3.20;;;8.50;99.90;;;;;;4988400;28;20355;-79
2021/01/21 11:26:16;;;;;;;13.23;2.90;;;8.60;99.90;;;;;;4987513;28;20223;-84
2021/01/21 11:28:42;;;;;;;14.37;2.97;;;8.60;99.90;;;;;;4987420;28;20200;-81
2021/01/21 11:31:10;;;;;;;21.97;3.97;;;8.50;99.90;;;;;;4989761;28;20200;-86
2021/01/21 11:33:41;;;;;;;17.53;3.20;;;8.40;99.90;;;;;;4990133;28;20509;-86
2021/01/21 11:36:07;;;;;;;14.37;4.13;;;8.30;99.90;;;;;;4989965;28;20640;-83
2021/01/21 11:38:34;;;;;;;14.13;4.87;;;8.20;99.90;;;;;;4992034;28;20235;-82
2021/01/21 11:41:01;;;;;;;17.53;3.83;;;8.10;99.90;;;;;;4992049;28;20196;-85
2021/01/21 11:43:27;;;;;;;16.33;4.37;;;8.20;99.90;;;;;;4991044;28;20207;-82
2021/01/21 11:45:53;;;;;;;18.10;3.47;;;8.20;99.90;;;;;;4988153;28;20291;-81
2021/01/21 11:48:20;;;;;;;14.47;3.50;;;8.10;99.90;;;;;;4988164;28;20967;-82
2021/01/21 11:50:46;;;;;;;13.77;3.03;;;8.10;99.90;;;;;;4987845;28;20233;-80
2021/01/21 11:53:12;;;;;;;16.47;2.80;;;8.20;99.90;;;;;;4989151;28;20200;-82
2021/01/21 11:55:40;;;;;;;9.47;3.03;;;8.20;99.90;;;;;;4987312;28;20322;-78
2021/01/21 11:58:06;;;;;;;21.63;5.33;;;8.30;99.90;;;;;;4988572;28;20215;-80
2021/01/21 12:00:33;;;;;;;12.93;3.53;;;8.40;99.90;;;;;;4987717;28;20587;-80
2021/01/21 12:02:59;;;;;;;15.97;3.90;;;8.40;99.90;;;;;;4986900;28;20196;-79
2021/01/21 12:05:26;;;;;;;13.60;3.17;;;8.50;99.90;;;;;;4988572;28;20211;-79
2021/01/21 12:07:52;;;;;;;16.17;3.00;;;8.50;99.90;;;;;;4988803;28;20268;-83
2021/01/21 12:10:19;;;;;;;10.90;3.20;;;8.50;99.90;;;;;;4988953;28;20954;-79
2021/01/21 12:12:46;;;;;;;10.10;2.67;;;8.50;99.90;;;;;;4989284;28;20624;-82
2021/01/21 12:15:13;;;;;;;8.87;2.53;;;8.50;99.90;;;;;;4987650;28;20274;-80
2021/01/21 12:17:39;;;;;;;11.53;2.43;;;8.50;99.90;;;;;;4987615;28;20208;-80
2021/01/21 12:20:07;;;;;;;12.57;2.60;;;8.40;99.90;;;;;;4987698;28;20223;-80
2021/01/21 12:22:33;;;;;;;14.60;3.70;;;8.40;99.90;;;;;;4986581;28;20691;-81
2021/01/21 12:24:59;;;;;;;12.40;2.87;;;8.40;99.90;;;;;;4986491;28;20200;-81
2021/01/21 12:27:26;;;;;;;14.53;3.17;;;8.50;99.90;;;;;;4987102;28;20254;-82
2021/01/21 12:29:53;;;;;;;14.00;3.13;;;8.50;99.90;;;;;;4986508;28;20218;-80
2021/01/21 12:32:20;;;;;;;19.03;3.77;;;8.50;99.90;;;;;;4987275;28;20196;-80
2021/01/21 12:34:47;;;;;;;15.00;3.53;;;8.60;99.90;;;;;;4986463;28;20224;-80
2021/01/21 12:37:13;;;;;;;14.90;3.57;;;8.60;99.90;;;;;;4986313;28;20208;-81
2021/01/21 12:39:39;;;;;;;17.07;3.20;;;8.70;99.90;;;;;;4986324;28;20247;-81
2021/01/21 12:42:06;;;;;;;11.80;2.83;;;8.80;99.90;;;;;;4984797;28;20207;-82
2021/01/21 12:44:32;;;;;;;16.77;3.73;;;8.80;99.90;;;;;;4987561;28;20204;-81
2021/01/21 12:46:59;;;;;;;19.17;3.07;;;8.90;99.90;;;;;;4987978;28;20242;-82
2021/01/21 12:49:26;;;;;;;17.00;3.23;;;8.90;99.90;;;;;;4987783;28;20200;-83
2021/01/21 12:51:52;;;;;;;11.03;2.67;;;8.90;99.90;;;;;;4986203;28;20207;-85
2021/01/21 12:54:19;;;;;;;14.37;2.50;;;8.90;99.90;;;;;;4988732;28;20215;-85